Wetterdaten: Woche 10.05.04 - 16.05.04 (KW20)
Datum Zeit Temperatur Luftfeuchte Luftdruck Regenmenge Wind Richtung Taupunkt Windchill
10.05.2004 00:00 7.0 C 100 % 1012.9 hPa 0.0 l/m 0.0 km/h (0 Bft) N 7.0 C 7.0 C
10.05.2004 01:00 7.0 C 100 % 1012.9 hPa 0.0 l/m 0.2 km/h (0 Bft) N 7.0 C 7.0 C
10.05.2004 02:00 7.0 C 100 % 1012.9 hPa 0.0 l/m 0.1 km/h (0 Bft) N 7.0 C 7.0 C
10.05.2004 03:00 6.9 C 100 % 1012.9 hPa 0.0 l/m 0.0 km/h (0 Bft) N 6.9 C 6.9 C
10.05.2004 04:00 6.9 C 100 % 1012.8 hPa 0.0 l/m 0.0 km/h (0 Bft) N 6.9 C 6.9 C
10.05.2004 05:00 6.8 C 100 % 1012.3 hPa 0.0 l/m 0.1 km/h (0 Bft) N 6.8 C 6.8 C
10.05.2004 06:00 6.9 C 100 % 1012.9 hPa 0.0 l/m 0.0 km/h (0 Bft) N 6.9 C 6.9 C
10.05.2004 07:00 7.5 C 100 % 1012.8 hPa 0.0 l/m 0.0 km/h (0 Bft) N 7.5 C 7.5 C
10.05.2004 08:00 8.4 C 93 % 1012.7 hPa 0.0 l/m 0.7 km/h (0 Bft) O-SO 7.3 C 8.4 C
10.05.2004 09:00 9.9 C 79 % 1012.5 hPa 0.0 l/m 2.9 km/h (1 Bft) O-SO 6.4 C 9.7 C
10.05.2004 10:00 11.0 C 70 % 1013.2 hPa 0.0 l/m 2.1 km/h (1 Bft) O-SO 5.7 C 11.0 C
10.05.2004 11:00 11.3 C 67 % 1013.3 hPa 0.0 l/m 4.0 km/h (1 Bft) NW 5.4 C 11.3 C
10.05.2004 12:00 12.9 C 62 % 1012.8 hPa 0.0 l/m 9.8 km/h (2 Bft) NW 5.7 C 12.9 C
10.05.2004 13:00 14.6 C 56 % 1012.3 hPa 0.0 l/m 3.4 km/h (1 Bft) W-NW 5.8 C 14.6 C
10.05.2004 14:00 16.5 C 50 % 1011.6 hPa 0.0 l/m 3.3 km/h (1 Bft) W-NW 5.9 C 16.5 C
10.05.2004 15:00 18.0 C 45 % 1011.4 hPa 0.0 l/m 1.7 km/h (1 Bft) NW 6.0 C 18.0 C
10.05.2004 16:00 18.4 C 42 % 1011.3 hPa 0.0 l/m 2.6 km/h (1 Bft) NW 5.2 C 18.4 C
10.05.2004 17:00 17.3 C 41 % 1011.5 hPa 0.0 l/m 3.5 km/h (1 Bft) W-NW 3.9 C 17.3 C
10.05.2004 18:00 16.6 C 48 % 1011.6 hPa 0.0 l/m 1.5 km/h (1 Bft) N-NW 5.6 C 16.6 C
10.05.2004 19:00 16.5 C 52 % 1011.8 hPa 0.0 l/m 2.2 km/h (1 Bft) O-SO 6.6 C 16.5 C
10.05.2004 20:00 13.8 C 63 % 1013.0 hPa 0.0 l/m 0.1 km/h (0 Bft) N 6.8 C 13.8 C
10.05.2004 21:00 12.0 C 70 % 1013.7 hPa 0.0 l/m 0.0 km/h (0 Bft) N 6.7 C 12.0 C
10.05.2004 22:00 10.2 C 82 % 1014.5 hPa 0.0 l/m 0.0 km/h (0 Bft) N 7.2 C 10.2 C
10.05.2004 23:00 8.7 C 92 % 1015.0 hPa 0.0 l/m 0.5 km/h (0 Bft) NW 7.4 C 8.6 C
11.05.2004 00:00 7.5 C 97 % 1015.9 hPa 0.0 l/m 0.9 km/h (0 Bft) NW 7.1 C 7.4 C
11.05.2004 01:00 6.9 C 100 % 1016.8 hPa 0.0 l/m 0.6 km/h (0 Bft) NW 6.9 C 6.9 C
11.05.2004 02:00 6.0 C 100 % 1017.2 hPa 0.0 l/m 0.0 km/h (0 Bft) N 6.0 C 6.0 C
11.05.2004 03:00 5.7 C 100 % 1017.2 hPa 0.0 l/m 0.6 km/h (0 Bft) NW 5.7 C 5.7 C
11.05.2004 04:00 5.3 C 100 % 1017.3 hPa 0.0 l/m 0.0 km/h (0 Bft) N 5.3 C 5.3 C
11.05.2004 05:00 5.5 C 100 % 1017.2 hPa 0.0 l/m 0.0 km/h (0 Bft) N 5.5 C 5.5 C
11.05.2004 06:00 5.7 C 100 % 1017.2 hPa 0.0 l/m 0.0 km/h (0 Bft) N 5.6 C 5.7 C
11.05.2004 07:00 7.3 C 100 % 1017.5 hPa 0.0 l/m 0.0 km/h (0 Bft) N 7.3 C 7.3 C
11.05.2004 08:00 8.2 C 94 % 1017.9 hPa 0.0 l/m 0.4 km/h (0 Bft) NW 7.2 C 8.2 C
11.05.2004 09:00 10.2 C 79 % 1017.6 hPa 0.0 l/m 0.0 km/h (0 Bft) N 6.7 C 10.2 C
11.05.2004 10:00 12.2 C 72 % 1017.6 hPa 0.0 l/m 0.8 km/h (0 Bft) W 7.4 C 12.2 C
11.05.2004 11:00 14.3 C 65 % 1018.1 hPa 0.0 l/m 2.3 km/h (1 Bft) W-NW 7.8 C 14.3 C
11.05.2004 12:00 17.9 C 48 % 1016.9 hPa 0.0 l/m 3.9 km/h (1 Bft) W-NW 6.5 C 17.9 C
11.05.2004 13:00 19.0 C 39 % 1016.5 hPa 0.0 l/m 3.3 km/h (1 Bft) W-NW 4.7 C 19.0 C
11.05.2004 14:00 20.7 C 34 % 1015.4 hPa 0.0 l/m 2.7 km/h (1 Bft) NW 4.4 C 20.7 C
11.05.2004 15:00 21.4 C 34 % 1015.1 hPa 0.0 l/m 1.2 km/h (1 Bft) NW 4.7 C 21.4 C
11.05.2004 16:00 21.6 C 34 % 1014.6 hPa 0.0 l/m 6.1 km/h (2 Bft) NW 5.0 C 21.6 C
11.05.2004 17:00 20.9 C 35 % 1014.1 hPa 0.0 l/m 5.6 km/h (1 Bft) N 4.6 C 20.9 C
11.05.2004 18:00 19.6 C 41 % 1014.3 hPa 0.0 l/m 5.2 km/h (1 Bft) NO 5.8 C 19.6 C
11.05.2004 19:00 18.0 C 43 % 1014.6 hPa 0.0 l/m 1.0 km/h (0 Bft) O-NO 5.2 C 18.0 C
11.05.2004 20:00 15.4 C 59 % 1015.9 hPa 0.0 l/m 0.3 km/h (0 Bft) S-SW 7.2 C 15.4 C
11.05.2004 21:00 13.1 C 73 % 1016.2 hPa 0.0 l/m 0.8 km/h (0 Bft) O 8.5 C 13.1 C
11.05.2004 22:00 11.0 C 81 % 1016.5 hPa 0.0 l/m 1.3 km/h (1 Bft) O-SO 7.9 C 11.0 C
11.05.2004 23:00 9.6 C 89 % 1016.7 hPa 0.0 l/m 0.8 km/h (0 Bft) O 7.8 C 9.5 C
12.05.2004 00:00 8.6 C 94 % 1017.6 hPa 0.0 l/m 2.0 km/h (1 Bft) O 7.7 C 8.5 C
12.05.2004 01:00 8.1 C 98 % 1017.7 hPa 0.0 l/m 1.9 km/h (1 Bft) O 7.8 C 8.0 C
12.05.2004 02:00 7.4 C 99 % 1017.0 hPa 0.0 l/m 0.2 km/h (0 Bft) O 7.3 C 7.4 C
12.05.2004 03:00 6.4 C 100 % 1017.1 hPa 0.0 l/m 0.0 km/h (0 Bft) N 6.4 C 6.4 C
12.05.2004 04:00 5.9 C 100 % 1017.2 hPa 0.0 l/m 1.4 km/h (1 Bft) O 5.9 C 5.7 C
12.05.2004 05:00 5.6 C 100 % 1017.0 hPa 0.0 l/m 0.9 km/h (0 Bft) O-SO 5.6 C 5.5 C
12.05.2004 06:00 5.7 C 100 % 1017.2 hPa 0.0 l/m 0.0 km/h (0 Bft) N 5.7 C 5.7 C
12.05.2004 07:00 7.0 C 100 % 1017.0 hPa 0.0 l/m 0.0 km/h (0 Bft) N 7.0 C 7.0 C
12.05.2004 08:00 9.1 C 93 % 1016.7 hPa 0.0 l/m 0.7 km/h (0 Bft) N-NW 8.1 C 9.1 C
12.05.2004 09:00 11.7 C 76 % 1015.3 hPa 0.0 l/m 0.5 km/h (0 Bft) NW 7.6 C 11.7 C
12.05.2004 10:00 14.3 C 66 % 1015.0 hPa 0.0 l/m 1.3 km/h (1 Bft) NW 8.1 C 14.3 C
12.05.2004 11:00 17.2 C 56 % 1013.6 hPa 0.0 l/m 5.1 km/h (1 Bft) O-SO 8.3 C 17.2 C
12.05.2004 12:00 19.5 C 47 % 1012.7 hPa 0.0 l/m 2.7 km/h (1 Bft) N-NW 8.0 C 19.5 C
12.05.2004 13:00 20.5 C 41 % 1011.7 hPa 0.0 l/m 3.9 km/h (1 Bft) NW 6.9 C 20.5 C
12.05.2004 14:00 19.4 C 44 % 1011.2 hPa 0.0 l/m 7.8 km/h (2 Bft) W-NW 6.9 C 19.4 C
12.05.2004 15:00 18.8 C 47 % 1010.8 hPa 0.0 l/m 4.6 km/h (1 Bft) N 7.1 C 18.8 C
12.05.2004 16:00 15.9 C 63 % 1011.1 hPa 1.3 l/m 10.8 km/h (2 Bft) NW 8.5 C 15.9 C
12.05.2004 17:00 12.9 C 90 % 1011.8 hPa 0.3 l/m 0.1 km/h (0 Bft) N 11.2 C 12.9 C
12.05.2004 18:00 15.7 C 80 % 1010.6 hPa 0.0 l/m 1.3 km/h (1 Bft) W-NW 12.3 C 15.7 C
12.05.2004 19:00 16.7 C 60 % 1010.6 hPa 0.0 l/m 8.8 km/h (2 Bft) N 8.8 C 16.7 C
12.05.2004 20:00 15.3 C 58 % 1011.7 hPa 0.0 l/m 6.5 km/h (2 Bft) N-NO 7.2 C 15.3 C
12.05.2004 21:00 14.0 C 63 % 1012.5 hPa 0.0 l/m 2.4 km/h (1 Bft) N-NO 7.1 C 14.0 C
12.05.2004 22:00 13.5 C 66 % 1013.0 hPa 0.0 l/m 1.0 km/h (0 Bft) NO 7.3 C 13.5 C
12.05.2004 23:00 12.9 C 67 % 1013.1 hPa 0.0 l/m 1.0 km/h (0 Bft) NO 6.9 C 12.9 C
13.05.2004 00:00 12.4 C 66 % 1013.2 hPa 0.0 l/m 4.6 km/h (1 Bft) N-NO 6.3 C 12.4 C
13.05.2004 01:00 11.8 C 68 % 1013.3 hPa 0.0 l/m 4.4 km/h (1 Bft) N-NO 6.0 C 11.8 C
13.05.2004 02:00 11.4 C 68 % 1013.3 hPa 0.0 l/m 6.2 km/h (2 Bft) N-NO 5.7 C 11.4 C
13.05.2004 03:00 11.0 C 68 % 1013.4 hPa 0.0 l/m 2.8 km/h (1 Bft) N-NO 5.4 C 11.0 C
13.05.2004 04:00 10.6 C 70 % 1013.4 hPa 0.0 l/m 2.9 km/h (1 Bft) NO 5.4 C 10.6 C
13.05.2004 05:00 10.2 C 72 % 1013.5 hPa 0.0 l/m 2.5 km/h (1 Bft) N-NO 5.5 C 10.2 C
13.05.2004 06:00 10.0 C 73 % 1013.9 hPa 0.0 l/m 2.1 km/h (1 Bft) N-NO 5.5 C 9.8 C
13.05.2004 07:00 9.8 C 80 % 1014.6 hPa 0.0 l/m 0.2 km/h (0 Bft) N-NW 6.6 C 9.8 C
13.05.2004 08:00 10.3 C 76 % 1014.7 hPa 0.0 l/m 0.2 km/h (0 Bft) NW 6.3 C 10.3 C
13.05.2004 09:00 11.1 C 73 % 1015.4 hPa 0.0 l/m 0.2 km/h (0 Bft) N 6.6 C 11.1 C
13.05.2004 10:00 11.6 C 70 % 1015.3 hPa 0.0 l/m 5.1 km/h (1 Bft) NW 6.4 C 11.6 C
13.05.2004 11:00 11.8 C 62 % 1015.8 hPa 0.0 l/m 5.1 km/h (1 Bft) N-NW 4.9 C 11.8 C
13.05.2004 12:00 12.0 C 59 % 1016.3 hPa 0.0 l/m 4.6 km/h (1 Bft) N-NO 4.2 C 12.0 C
13.05.2004 13:00 13.3 C 56 % 1016.2 hPa 0.0 l/m 5.7 km/h (1 Bft) N 4.8 C 13.3 C
13.05.2004 14:00 13.1 C 58 % 1016.2 hPa 0.0 l/m 3.1 km/h (1 Bft) N 5.0 C 13.1 C
13.05.2004 15:00 13.6 C 56 % 1016.1 hPa 0.0 l/m 4.7 km/h (1 Bft) N 5.0 C 13.6 C
13.05.2004 16:00 14.1 C 55 % 1016.1 hPa 0.0 l/m 5.9 km/h (2 Bft) O 5.3 C 14.1 C
13.05.2004 17:00 13.7 C 55 % 1016.9 hPa 0.0 l/m 2.9 km/h (1 Bft) N 4.8 C 13.7 C
13.05.2004 18:00 14.0 C 53 % 1017.1 hPa 0.0 l/m 8.3 km/h (2 Bft) N 4.6 C 14.0 C
13.05.2004 19:00 12.6 C 58 % 1017.5 hPa 0.0 l/m 1.8 km/h (1 Bft) N-NO 4.6 C 12.6 C
13.05.2004 20:00 11.6 C 63 % 1018.5 hPa 0.0 l/m 3.3 km/h (1 Bft) NO 4.9 C 11.6 C
13.05.2004 21:00 10.7 C 69 % 1018.7 hPa 0.0 l/m 2.9 km/h (1 Bft) N-NO 5.2 C 10.7 C
13.05.2004 22:00 10.1 C 72 % 1019.7 hPa 0.0 l/m 0.0 km/h (0 Bft) NO 5.4 C 10.1 C
13.05.2004 23:00 9.8 C 74 % 1019.8 hPa 0.0 l/m 0.8 km/h (0 Bft) O 5.4 C 9.7 C
14.05.2004 00:00 8.3 C 83 % 1020.0 hPa 0.0 l/m 0.0 km/h (0 Bft) N 5.6 C 8.3 C
14.05.2004 01:00 6.6 C 91 % 1020.2 hPa 0.0 l/m 0.8 km/h (0 Bft) O 5.3 C 6.6 C
14.05.2004 02:00 5.7 C 97 % 1020.4 hPa 0.0 l/m 2.1 km/h (1 Bft) O 5.3 C 5.5 C
14.05.2004 03:00 4.9 C 100 % 1020.7 hPa 0.0 l/m 1.6 km/h (1 Bft) O-SO 4.9 C 4.9 C
14.05.2004 04:00 4.4 C 100 % 1021.2 hPa 0.0 l/m 1.5 km/h (1 Bft) O 4.3 C 4.2 C
14.05.2004 05:00 4.6 C 100 % 1021.5 hPa 0.0 l/m 0.4 km/h (0 Bft) O-SO 4.6 C 4.6 C
14.05.2004 06:00 5.8 C 100 % 1021.4 hPa 0.0 l/m 0.0 km/h (0 Bft) N 5.8 C 5.8 C
14.05.2004 07:00 7.1 C 98 % 1021.9 hPa 0.0 l/m 0.0 km/h (0 Bft) N 6.8 C 7.1 C
14.05.2004 08:00 8.6 C 87 % 1022.0 hPa 0.0 l/m 1.0 km/h (0 Bft) W-NW 6.6 C 8.6 C
14.05.2004 09:00 11.7 C 71 % 1021.6 hPa 0.0 l/m 2.6 km/h (1 Bft) O 6.5 C 11.7 C
14.05.2004 10:00 13.7 C 61 % 1021.3 hPa 0.0 l/m 8.2 km/h (2 Bft) O-SO 6.3 C 13.7 C
14.05.2004 11:00 15.9 C 48 % 1021.0 hPa 0.0 l/m 8.4 km/h (2 Bft) O-SO 5.0 C 15.9 C
14.05.2004 12:00 15.6 C 46 % 1021.0 hPa 0.0 l/m 3.4 km/h (1 Bft) O-NO 4.1 C 15.6 C
14.05.2004 13:00 16.9 C 43 % 1020.9 hPa 0.0 l/m 2.1 km/h (1 Bft) NO 4.2 C 16.9 C
14.05.2004 14:00 17.7 C 40 % 1020.8 hPa 0.0 l/m 2.4 km/h (1 Bft) O-NO 4.1 C 17.7 C
14.05.2004 15:00 18.1 C 38 % 1020.7 hPa 0.0 l/m 2.6 km/h (1 Bft) N-NO 3.5 C 18.1 C
14.05.2004 16:00 17.3 C 41 % 1020.8 hPa 0.0 l/m 2.8 km/h (1 Bft) N-NO 4.0 C 17.3 C
14.05.2004 17:00 18.5 C 40 % 1020.7 hPa 0.0 l/m 3.0 km/h (1 Bft) NW 4.5 C 18.5 C
14.05.2004 18:00 18.3 C 41 % 1020.7 hPa 0.0 l/m 0.8 km/h (0 Bft) N-NW 4.6 C 18.3 C
14.05.2004 19:00 18.0 C 42 % 1021.3 hPa 0.0 l/m 0.1 km/h (0 Bft) N 4.7 C 18.0 C
14.05.2004 20:00 15.5 C 50 % 1022.1 hPa 0.0 l/m 0.0 km/h (0 Bft) N 5.1 C 15.5 C
14.05.2004 21:00 12.8 C 61 % 1023.3 hPa 0.0 l/m 0.0 km/h (0 Bft) N 5.4 C 12.8 C
14.05.2004 22:00 10.5 C 74 % 1023.8 hPa 0.0 l/m 0.1 km/h (0 Bft) N 6.1 C 10.5 C
14.05.2004 23:00 10.1 C 79 % 1024.6 hPa 0.0 l/m 0.0 km/h (0 Bft) N 6.6 C 10.1 C
15.05.2004 00:00 9.3 C 80 % 1025.0 hPa 0.0 l/m 0.0 km/h (0 Bft) N 6.0 C 9.3 C
15.05.2004 01:00 9.1 C 82 % 1025.1 hPa 0.0 l/m 0.2 km/h (0 Bft) N-NW 6.3 C 9.1 C
15.05.2004 02:00 9.0 C 86 % 1025.1 hPa 0.0 l/m 0.0 km/h (0 Bft) N 6.7 C 9.0 C
15.05.2004 03:00 8.2 C 88 % 1025.2 hPa 0.0 l/m 0.2 km/h (0 Bft) NO 6.4 C 8.2 C
15.05.2004 04:00 7.2 C 93 % 1025.3 hPa 0.0 l/m 1.4 km/h (1 Bft) O 6.2 C 7.2 C
15.05.2004 05:00 6.3 C 96 % 1025.5 hPa 0.0 l/m 0.4 km/h (0 Bft) O-SO 5.7 C 6.2 C
15.05.2004 06:00 6.2 C 99 % 1025.9 hPa 0.0 l/m 0.0 km/h (0 Bft) N 6.1 C 6.2 C
15.05.2004 07:00 7.7 C 97 % 1026.3 hPa 0.0 l/m 0.0 km/h (0 Bft) N 7.2 C 7.7 C
15.05.2004 08:00 10.1 C 81 % 1026.6 hPa 0.0 l/m 0.6 km/h (0 Bft) NW 6.9 C 10.1 C
15.05.2004 09:00 13.0 C 66 % 1026.2 hPa 0.0 l/m 2.0 km/h (1 Bft) NW 6.8 C 13.0 C
15.05.2004 10:00 16.1 C 55 % 1025.2 hPa 0.0 l/m 6.0 km/h (2 Bft) O-SO 7.0 C 16.1 C
15.05.2004 11:00 17.9 C 48 % 1024.9 hPa 0.0 l/m 9.8 km/h (2 Bft) O-SO 6.6 C 17.9 C
15.05.2004 12:00 19.2 C 39 % 1024.7 hPa 0.0 l/m 10.4 km/h (2 Bft) O-SO 4.9 C 19.2 C
15.05.2004 13:00 20.7 C 36 % 1024.5 hPa 0.0 l/m 10.5 km/h (2 Bft) O-SO 5.0 C 20.7 C
15.05.2004 14:00 22.0 C 33 % 1024.4 hPa 0.0 l/m 9.4 km/h (2 Bft) O-SO 5.0 C 22.0 C
15.05.2004 15:00 22.8 C 33 % 1023.5 hPa 0.0 l/m 9.4 km/h (2 Bft) O-SO 5.6 C 22.8 C
15.05.2004 16:00 22.8 C 32 % 1023.2 hPa 0.0 l/m 6.3 km/h (2 Bft) O-SO 5.2 C 22.8 C
15.05.2004 17:00 22.7 C 32 % 1023.2 hPa 0.0 l/m 7.6 km/h (2 Bft) O-SO 5.2 C 22.7 C
15.05.2004 18:00 21.2 C 36 % 1023.4 hPa 0.0 l/m 5.1 km/h (1 Bft) O-SO 5.7 C 21.2 C
15.05.2004 19:00 19.9 C 39 % 1023.6 hPa 0.0 l/m 0.5 km/h (0 Bft) O-SO 5.5 C 19.9 C
15.05.2004 20:00 18.4 C 43 % 1024.1 hPa 0.0 l/m 0.0 km/h (0 Bft) N 5.4 C 18.4 C
15.05.2004 21:00 16.6 C 48 % 1025.1 hPa 0.0 l/m 3.5 km/h (1 Bft) NO 5.4 C 16.6 C
15.05.2004 22:00 15.3 C 52 % 1025.5 hPa 0.0 l/m 5.8 km/h (1 Bft) NO 5.5 C 15.3 C
15.05.2004 23:00 14.2 C 56 % 1026.2 hPa 0.0 l/m 0.8 km/h (0 Bft) N 5.4 C 14.2 C
16.05.2004 00:00 12.8 C 64 % 1026.6 hPa 0.0 l/m 0.1 km/h (0 Bft) N 6.1 C 12.8 C
16.05.2004 01:00 11.1 C 75 % 1026.9 hPa 0.0 l/m 0.0 km/h (0 Bft) N 6.7 C 11.1 C
16.05.2004 02:00 9.7 C 80 % 1026.9 hPa 0.0 l/m 0.5 km/h (0 Bft) N 6.4 C 9.7 C
16.05.2004 03:00 8.3 C 87 % 1027.1 hPa 0.0 l/m 0.6 km/h (0 Bft) O 6.2 C 8.3 C
16.05.2004 04:00 7.6 C 92 % 1027.0 hPa 0.0 l/m 0.0 km/h (0 Bft) N 6.4 C 7.6 C
16.05.2004 05:00 7.0 C 97 % 1026.9 hPa 0.0 l/m 1.6 km/h (1 Bft) O-SO 6.6 C 6.9 C
16.05.2004 06:00 8.1 C 95 % 1027.3 hPa 0.0 l/m 0.1 km/h (0 Bft) N 7.4 C 8.1 C
16.05.2004 07:00 9.5 C 86 % 1027.1 hPa 0.0 l/m 0.0 km/h (0 Bft) N 7.3 C 9.5 C
16.05.2004 08:00 10.7 C 78 % 1026.9 hPa 0.0 l/m 0.1 km/h (0 Bft) N 6.9 C 10.7 C
16.05.2004 09:00 12.3 C 69 % 1026.2 hPa 0.0 l/m 0.9 km/h (0 Bft) NW 6.8 C 12.3 C
16.05.2004 10:00 15.9 C 58 % 1025.5 hPa 0.0 l/m 2.6 km/h (1 Bft) O-SO 7.5 C 15.9 C
16.05.2004 11:00 18.1 C 53 % 1024.9 hPa 0.0 l/m 4.5 km/h (1 Bft) O-SO 8.2 C 18.1 C
16.05.2004 12:00 18.9 C 50 % 1024.8 hPa 0.0 l/m 15.3 km/h (3 Bft) O-SO 8.2 C 18.9 C
16.05.2004 13:00 19.0 C 45 % 1024.7 hPa 0.0 l/m 11.6 km/h (2 Bft) NO 6.8 C 19.0 C
16.05.2004 14:00 20.0 C 43 % 1024.6 hPa 0.0 l/m 10.5 km/h (2 Bft) O-SO 7.0 C 20.0 C
16.05.2004 15:00 20.6 C 41 % 1024.5 hPa 0.0 l/m 7.9 km/h (2 Bft) NO 6.9 C 20.6 C
16.05.2004 16:00 21.2 C 40 % 1023.8 hPa 0.0 l/m 9.0 km/h (2 Bft) NO 6.9 C 21.2 C
16.05.2004 17:00 20.3 C 39 % 1023.6 hPa 0.0 l/m 5.1 km/h (1 Bft) NO 6.0 C 20.3 C
16.05.2004 18:00 19.8 C 38 % 1023.6 hPa 0.0 l/m 6.9 km/h (2 Bft) N-NO 5.0 C 19.8 C
16.05.2004 19:00 18.9 C 39 % 1023.7 hPa 0.0 l/m 4.7 km/h (1 Bft) O-SO 4.6 C 18.9 C
16.05.2004 20:00 16.8 C 45 % 1024.0 hPa 0.0 l/m 0.5 km/h (0 Bft) O-SO 4.8 C 16.8 C
16.05.2004 21:00 13.5 C 56 % 1024.4 hPa 0.0 l/m 1.5 km/h (1 Bft) O-SO 4.9 C 13.5 C
16.05.2004 22:00 11.6 C 66 % 1025.2 hPa 0.0 l/m 5.0 km/h (1 Bft) O-SO 5.5 C 11.6 C
16.05.2004 23:00 10.6 C 70 % 1025.9 hPa 0.0 l/m 0.6 km/h (0 Bft) O 5.4 C 10.6 C
Min-Datum _ 14.05.04 10.05.04 12.05.04 - 10.05.04 - 10.05.04 14.05.04
_ Min-Zeit 04:44 17:05 15:35 - 00:02 - 17:05 04:29
Minimum _ 4.0 C 28 % 1010.3 hPa - 0.0 km/h (0 Bft) - -0.9 C 3.4 C
Max-Datum _ 15.05.04 10.05.04 16.05.04 12.05.04 12.05.04 - 12.05.04 15.05.04
_ Max-Zeit 15:23 00:02 05:38 16:46 16:43 - 18:19 15:23
Maximum _ 23.3 C 100 % 1027.4 hPa 1.3 l/m 34.7 km/h
NW (5 Bft)
- 13.1 C 23.3 C
Durchschnitt _ 12.8 C 68 % 1018.7 hPa #1.7 l/m 2.7 km/h (1 Bft) O-SO 6.2 C 12.7 C

Durchschnitt Minimum Temp.11.8 C
Durchschnitt Maximum Temp.13.7 C
© Kaiko 2004